createdAt,value
2023-04-09T00:00:27.898Z,99694.60
2023-04-09T00:03:15.634Z,99690.80
2023-04-09T00:05:43.413Z,99691.80
2023-04-09T00:08:11.041Z,99694.40
2023-04-09T00:10:38.717Z,99693.40
2023-04-09T00:13:06.437Z,99690.40
2023-04-09T00:15:34.093Z,99684.60
2023-04-09T00:18:01.725Z,99686.20
2023-04-09T00:20:29.381Z,99693.40
2023-04-09T00:22:58.277Z,99691.80
2023-04-09T00:25:25.962Z,99692.20
2023-04-09T00:27:53.602Z,99690.40
2023-04-09T00:30:22.920Z,99691.80
2023-04-09T00:32:50.633Z,99691.40
2023-04-09T00:35:18.512Z,99687.80
2023-04-09T00:37:46.337Z,99689.40
2023-04-09T00:40:14.562Z,99685.20
2023-04-09T00:42:42.216Z,99687.40
2023-04-09T00:45:11.040Z,99688.00
2023-04-09T00:47:38.887Z,99686.20
2023-04-09T00:50:07.151Z,99689.40
2023-04-09T00:52:34.943Z,99687.40
2023-04-09T00:55:06.306Z,99684.40
2023-04-09T00:57:34.043Z,99689.80
2023-04-09T01:00:02.159Z,99685.40
2023-04-09T01:02:31.114Z,99685.60
2023-04-09T01:04:59.651Z,99684.40
2023-04-09T01:07:51.221Z,99679.00
2023-04-09T01:10:38.358Z,99684.20
2023-04-09T01:13:19.904Z,99677.40
2023-04-09T01:15:54.472Z,99682.20
2023-04-09T01:18:34.369Z,99673.60
2023-04-09T01:21:31.527Z,99670.80
2023-04-09T01:24:18.268Z,99666.60
2023-04-09T01:27:07.819Z,99666.40
2023-04-09T01:29:54.614Z,99676.00
2023-04-09T01:32:25.881Z,99678.60
2023-04-09T01:34:55.502Z,99681.40
2023-04-09T01:37:24.860Z,99680.40
2023-04-09T01:39:52.896Z,99679.80
2023-04-09T01:42:21.461Z,99672.20
2023-04-09T01:44:49.908Z,99671.20
2023-04-09T01:47:17.720Z,99666.40
2023-04-09T01:49:46.027Z,99666.40
2023-04-09T01:52:14.619Z,99663.20
2023-04-09T01:54:43.095Z,99659.20
2023-04-09T01:57:10.769Z,99658.80
2023-04-09T01:59:38.388Z,99665.20
2023-04-09T02:02:18.827Z,99663.40
2023-04-09T02:04:54.310Z,99664.20
2023-04-09T02:07:56.101Z,99668.20
2023-04-09T02:10:31.496Z,99679.00
2023-04-09T02:13:01.945Z,99672.80
2023-04-09T02:15:33.528Z,99681.80
2023-04-09T02:18:01.636Z,99680.80
2023-04-09T02:20:29.255Z,99682.80
2023-04-09T02:22:56.877Z,99681.00
2023-04-09T02:25:25.550Z,99685.80
2023-04-09T02:27:53.160Z,99684.60
2023-04-09T02:30:20.992Z,99680.40
2023-04-09T02:32:48.569Z,99675.00
2023-04-09T02:35:16.596Z,99678.40
2023-04-09T02:37:44.186Z,99672.00
2023-04-09T02:40:12.406Z,99671.40
2023-04-09T02:42:40.049Z,99671.20
2023-04-09T02:45:08.692Z,99669.80
2023-04-09T02:47:36.335Z,99664.80
2023-04-09T02:50:05.799Z,99667.00
2023-04-09T02:52:33.530Z,99672.40
2023-04-09T02:55:01.192Z,99673.40
2023-04-09T02:57:30.004Z,99671.40
2023-04-09T02:59:58.194Z,99669.80
2023-04-09T03:02:26.110Z,99668.00
2023-04-09T03:04:53.998Z,99666.20
2023-04-09T03:07:22.983Z,99658.60
2023-04-09T03:09:50.838Z,99660.00
2023-04-09T03:12:18.477Z,99658.00
2023-04-09T03:14:46.605Z,99663.20
2023-04-09T03:17:14.276Z,99664.60
2023-04-09T03:19:41.934Z,99669.00
2023-04-09T03:22:09.703Z,99672.00
2023-04-09T03:24:37.425Z,99676.80
2023-04-09T03:27:05.473Z,99681.00
2023-04-09T03:29:33.046Z,99682.20
2023-04-09T03:32:00.863Z,99677.80
2023-04-09T03:34:28.589Z,99680.40
2023-04-09T03:36:56.233Z,99678.40
2023-04-09T03:39:23.831Z,99663.40
2023-04-09T03:41:51.459Z,99654.80
2023-04-09T03:44:19.086Z,99652.20
2023-04-09T03:46:46.769Z,99655.80
2023-04-09T03:49:14.405Z,99660.60
2023-04-09T03:51:42.160Z,99659.40
2023-04-09T03:54:09.850Z,99663.00
2023-04-09T03:56:37.565Z,99665.40
2023-04-09T03:59:05.325Z,99665.20
2023-04-09T04:01:32.978Z,99664.60
2023-04-09T04:04:00.959Z,99663.00
2023-04-09T04:06:28.654Z,99661.80
2023-04-09T04:08:56.336Z,99662.60
2023-04-09T04:11:24.021Z,99663.40
2023-04-09T04:13:51.592Z,99663.80
2023-04-09T04:16:19.243Z,99669.40
2023-04-09T04:18:46.922Z,99671.00
2023-04-09T04:21:16.605Z,99663.40
2023-04-09T04:23:44.386Z,99667.00
2023-04-09T04:26:12.178Z,99670.60
2023-04-09T04:28:40.718Z,99674.20
2023-04-09T04:31:13.047Z,99674.60
2023-04-09T04:33:42.283Z,99673.20
2023-04-09T04:36:13.098Z,99672.40
2023-04-09T04:38:41.920Z,99673.80
2023-04-09T04:41:12.057Z,99681.00
2023-04-09T04:43:41.503Z,99674.60
2023-04-09T04:46:09.457Z,99675.40
2023-04-09T04:48:37.094Z,99672.80
2023-04-09T04:51:04.901Z,99678.80
2023-04-09T04:53:32.838Z,99682.40
2023-04-09T04:56:00.602Z,99679.80
2023-04-09T04:58:29.358Z,99685.80
2023-04-09T05:00:57.133Z,99684.00
2023-04-09T05:03:26.974Z,99679.00
2023-04-09T05:05:55.352Z,99683.80
2023-04-09T05:08:23.073Z,99683.80
2023-04-09T05:10:51.341Z,99689.60
2023-04-09T05:13:19.669Z,99688.00
2023-04-09T05:15:47.323Z,99694.80
2023-04-09T05:18:14.942Z,99693.20
2023-04-09T05:20:42.595Z,99688.80
2023-04-09T05:23:10.410Z,99691.60
2023-04-09T05:25:38.984Z,99698.80
2023-04-09T05:28:06.693Z,99696.00
2023-04-09T05:30:34.316Z,99697.20
2023-04-09T05:33:02.274Z,99699.80
2023-04-09T05:35:29.868Z,99692.80
2023-04-09T05:37:57.553Z,99694.60
2023-04-09T05:40:25.262Z,99697.60
2023-04-09T05:42:52.837Z,99703.60
2023-04-09T05:45:20.542Z,99707.60
2023-04-09T05:47:48.224Z,99706.60
2023-04-09T05:50:16.210Z,99705.60
2023-04-09T05:52:43.974Z,99705.40
2023-04-09T05:55:11.922Z,99702.80
2023-04-09T05:57:39.661Z,99701.60
2023-04-09T06:00:08.430Z,99706.40
2023-04-09T06:02:36.155Z,99708.60
2023-04-09T06:05:04.209Z,99703.60
2023-04-09T06:07:31.864Z,99703.40
2023-04-09T06:09:59.603Z,99704.60
2023-04-09T06:12:27.208Z,99704.80
2023-04-09T06:14:54.799Z,99707.80
2023-04-09T06:17:22.687Z,99706.40
2023-04-09T06:19:50.584Z,99707.00
2023-04-09T06:22:18.303Z,99709.60
2023-04-09T06:24:46.058Z,99711.60
2023-04-09T06:27:13.714Z,99711.00
2023-04-09T06:29:41.482Z,99714.40
2023-04-09T06:32:09.147Z,99717.00
2023-04-09T06:34:36.752Z,99714.80
2023-04-09T06:37:04.502Z,99714.20
2023-04-09T06:39:33.077Z,99718.20
2023-04-09T06:42:01.102Z,99719.00
2023-04-09T06:44:28.698Z,99719.40
2023-04-09T06:46:56.621Z,99726.80
2023-04-09T06:49:24.377Z,99730.20
2023-04-09T06:51:53.657Z,99733.80
2023-04-09T06:54:21.386Z,99732.80
2023-04-09T06:56:49.104Z,99731.80
2023-04-09T06:59:16.803Z,99738.60
2023-04-09T07:01:45.200Z,99732.60
2023-04-09T07:04:13.469Z,99731.60
2023-04-09T07:06:41.504Z,99735.40
2023-04-09T07:09:09.467Z,99731.80
2023-04-09T07:11:37.057Z,99728.20
2023-04-09T07:14:04.815Z,99731.00
2023-04-09T07:16:32.598Z,99728.60
2023-04-09T07:19:00.618Z,99732.40
2023-04-09T07:21:28.349Z,99730.60
2023-04-09T07:23:56.454Z,99735.20
2023-04-09T07:26:24.265Z,99739.00
2023-04-09T07:28:52.296Z,99741.20
2023-04-09T07:31:19.945Z,99744.60
2023-04-09T07:33:47.543Z,99739.40
2023-04-09T07:36:15.751Z,99742.00
2023-04-09T07:38:44.543Z,99742.80
2023-04-09T07:41:12.298Z,99746.20
2023-04-09T07:43:40.925Z,99749.80
2023-04-09T07:46:08.571Z,99748.40
2023-04-09T07:48:36.475Z,99744.00
2023-04-09T07:51:05.382Z,99745.00
2023-04-09T07:53:32.991Z,99745.80
2023-04-09T07:56:01.164Z,99745.00
2023-04-09T07:58:28.866Z,99747.20
2023-04-09T08:00:56.463Z,99743.00
2023-04-09T08:03:24.595Z,99741.00
2023-04-09T08:05:52.488Z,99737.80
2023-04-09T08:08:20.394Z,99739.40
2023-04-09T08:10:48.179Z,99739.40
2023-04-09T08:13:16.060Z,99737.80
2023-04-09T08:15:43.678Z,99743.40
2023-04-09T08:18:11.418Z,99742.60
2023-04-09T08:20:45.072Z,99744.80
2023-04-09T08:23:13.130Z,99744.20
2023-04-09T08:25:40.896Z,99746.60
2023-04-09T08:28:08.504Z,99746.80
2023-04-09T08:30:36.379Z,99749.00
2023-04-09T08:33:04.301Z,99746.00
2023-04-09T08:35:32.302Z,99742.60
2023-04-09T08:38:00.424Z,99745.60
2023-04-09T08:40:28.072Z,99747.60
2023-04-09T08:42:57.023Z,99749.20
2023-04-09T08:45:24.734Z,99744.20
2023-04-09T08:47:53.162Z,99750.40
2023-04-09T08:50:21.089Z,99752.20
2023-04-09T08:52:49.330Z,99748.20
2023-04-09T08:55:17.093Z,99751.40
2023-04-09T08:57:44.723Z,99751.60
2023-04-09T09:00:13.358Z,99752.80
2023-04-09T09:03:13.301Z,99754.40
2023-04-09T09:05:42.995Z,99751.40
2023-04-09T09:08:14.377Z,99751.40
2023-04-09T09:10:45.442Z,99753.80
2023-04-09T09:13:39.366Z,99758.80
2023-04-09T09:16:16.071Z,99753.60
2023-04-09T09:18:44.451Z,99761.40
2023-04-09T09:21:19.446Z,99759.40
2023-04-09T09:23:48.512Z,99767.20
2023-04-09T09:26:23.071Z,99763.40
2023-04-09T09:28:52.077Z,99765.80
2023-04-09T09:31:23.118Z,99765.20
2023-04-09T09:33:51.761Z,99768.00
2023-04-09T09:36:35.946Z,99760.60
2023-04-09T09:39:05.402Z,99764.00
2023-04-09T09:41:33.079Z,99759.80
2023-04-09T09:44:00.818Z,99758.40
2023-04-09T09:46:31.908Z,99759.80
2023-04-09T09:48:59.611Z,99763.80
2023-04-09T09:51:28.891Z,99761.40
2023-04-09T09:53:58.473Z,99762.00
2023-04-09T09:56:35.220Z,99769.80
2023-04-09T09:59:30.531Z,99764.00
2023-04-09T10:02:07.438Z,99766.40
2023-04-09T10:04:36.666Z,99765.20
2023-04-09T10:07:07.397Z,99764.80
2023-04-09T10:09:41.458Z,99761.60
2023-04-09T10:12:11.910Z,99757.40
2023-04-09T10:14:40.459Z,99757.00
2023-04-09T10:17:08.574Z,99759.20
2023-04-09T10:20:11.790Z,99758.40
2023-04-09T10:22:40.130Z,99761.20
2023-04-09T10:25:08.389Z,99754.80
2023-04-09T10:27:36.668Z,99758.20
2023-04-09T10:30:07.381Z,99751.40
2023-04-09T10:32:36.941Z,99749.80
2023-04-09T10:35:05.200Z,99750.40
2023-04-09T10:37:35.619Z,99742.00
2023-04-09T10:40:04.811Z,99738.60
2023-04-09T10:42:41.045Z,99740.40
2023-04-09T10:45:14.701Z,99736.40
2023-04-09T10:47:44.221Z,99737.00
2023-04-09T10:50:25.798Z,99733.80
2023-04-09T10:53:00.267Z,99735.80
2023-04-09T10:55:40.284Z,99738.60
2023-04-09T10:58:13.658Z,99735.00
2023-04-09T11:00:50.690Z,99740.20
2023-04-09T11:03:32.773Z,99741.40
2023-04-09T11:06:06.166Z,99739.80
2023-04-09T11:08:35.059Z,99740.20
2023-04-09T11:11:03.602Z,99737.40
2023-04-09T11:13:32.895Z,99737.00
2023-04-09T11:16:03.394Z,99740.20
2023-04-09T11:18:33.931Z,99744.20
2023-04-09T11:21:04.340Z,99745.20
2023-04-09T11:23:33.356Z,99746.20
2023-04-09T11:26:02.177Z,99739.00
2023-04-09T11:28:30.028Z,99737.00
2023-04-09T11:30:57.700Z,99737.60
2023-04-09T11:33:33.809Z,99734.20
2023-04-09T11:36:04.445Z,99736.00
2023-04-09T11:38:32.144Z,99741.00
2023-04-09T11:41:01.714Z,99743.20
2023-04-09T11:43:29.315Z,99737.60
2023-04-09T11:45:57.864Z,99741.00
2023-04-09T11:48:26.077Z,99743.80
2023-04-09T11:50:54.219Z,99738.00
2023-04-09T11:53:23.953Z,99741.80
2023-04-09T11:55:53.997Z,99736.00
2023-04-09T11:58:26.353Z,99736.20
2023-04-09T12:00:57.960Z,99737.60
2023-04-09T12:03:31.354Z,99734.40
2023-04-09T12:06:04.034Z,99737.00
2023-04-09T12:08:35.548Z,99744.20
2023-04-09T12:11:16.179Z,99743.00
2023-04-09T12:13:46.260Z,99744.60
2023-04-09T12:16:15.097Z,99739.80
2023-04-09T12:18:42.985Z,99738.80
2023-04-09T12:21:10.862Z,99743.40
2023-04-09T12:23:38.575Z,99744.00
2023-04-09T12:26:06.262Z,99745.20
2023-04-09T12:28:33.973Z,99747.20
2023-04-09T12:31:03.488Z,99749.60
2023-04-09T12:33:32.318Z,99744.60
2023-04-09T12:36:00.040Z,99747.00
2023-04-09T12:38:27.790Z,99741.00
2023-04-09T12:40:55.493Z,99745.00
2023-04-09T12:43:23.116Z,99740.80
2023-04-09T12:45:52.806Z,99747.80
2023-04-09T12:48:20.595Z,99746.00
2023-04-09T12:50:48.453Z,99746.00
2023-04-09T12:53:16.125Z,99746.40
2023-04-09T12:55:43.761Z,99749.00
2023-04-09T12:58:11.365Z,99747.80
2023-04-09T13:00:39.026Z,99745.20
2023-04-09T13:03:07.167Z,99745.80
2023-04-09T13:05:37.967Z,99745.20
2023-04-09T13:08:05.622Z,99742.60
2023-04-09T13:10:33.735Z,99737.00
2023-04-09T13:13:01.448Z,99737.80
2023-04-09T13:15:29.095Z,99731.00
2023-04-09T13:17:56.775Z,99734.40
2023-04-09T13:20:24.526Z,99734.80
2023-04-09T13:22:52.470Z,99735.60
2023-04-09T13:25:20.599Z,99738.20
2023-04-09T13:27:48.649Z,99737.00
2023-04-09T13:30:16.476Z,99737.60
2023-04-09T13:32:44.236Z,99731.20
2023-04-09T13:35:12.013Z,99734.80
2023-04-09T13:37:39.786Z,99733.00
2023-04-09T13:40:09.167Z,99735.20
2023-04-09T13:42:37.724Z,99731.80
2023-04-09T13:45:06.553Z,99728.00
2023-04-09T13:47:35.156Z,99727.80
2023-04-09T13:50:03.450Z,99723.40
2023-04-09T13:52:32.860Z,99727.20
2023-04-09T13:55:00.605Z,99733.40
2023-04-09T13:57:28.180Z,99734.40
2023-04-09T13:59:55.809Z,99735.00
2023-04-09T14:02:23.890Z,99736.60
2023-04-09T14:04:52.612Z,99735.00
2023-04-09T14:07:20.512Z,99724.00
2023-04-09T14:09:48.336Z,99723.00
2023-04-09T14:12:16.361Z,99725.00
2023-04-09T14:14:44.011Z,99721.60
2023-04-09T14:17:11.696Z,99719.80
2023-04-09T14:19:39.715Z,99714.80
2023-04-09T14:22:08.798Z,99713.40
2023-04-09T14:24:40.190Z,99716.20
2023-04-09T14:27:09.143Z,99718.60
2023-04-09T14:29:37.193Z,99716.20
2023-04-09T14:32:05.343Z,99710.60
2023-04-09T14:34:33.432Z,99715.20
2023-04-09T14:37:01.200Z,99705.80
2023-04-09T14:39:28.960Z,99706.40
2023-04-09T14:41:57.327Z,99706.00
2023-04-09T14:44:26.102Z,99699.60
2023-04-09T14:46:55.098Z,99701.40
2023-04-09T14:49:23.156Z,99706.20
2023-04-09T14:51:50.990Z,99703.40
2023-04-09T14:54:18.583Z,99702.20
2023-04-09T14:56:46.245Z,99699.60
2023-04-09T14:59:17.281Z,99696.00
2023-04-09T15:01:45.103Z,99699.20
2023-04-09T15:04:12.894Z,99702.80
2023-04-09T15:06:40.861Z,99697.60
2023-04-09T15:09:09.085Z,99696.40
2023-04-09T15:11:36.792Z,99705.00
2023-04-09T15:14:04.483Z,99696.40
2023-04-09T15:16:37.352Z,99699.60
2023-04-09T15:19:05.242Z,99701.80
2023-04-09T15:21:33.038Z,99699.00
2023-04-09T15:24:00.977Z,99696.80
2023-04-09T15:26:28.616Z,99702.40
2023-04-09T15:29:04.161Z,99706.40
2023-04-09T15:31:33.320Z,99704.80
2023-04-09T15:34:01.348Z,99706.00
2023-04-09T15:36:31.015Z,99704.00
2023-04-09T15:38:58.667Z,99712.00
2023-04-09T15:41:26.947Z,99707.60
2023-04-09T15:43:54.749Z,99711.60
2023-04-09T15:46:22.854Z,99716.60
2023-04-09T15:48:50.837Z,99716.80
2023-04-09T15:51:18.704Z,99718.00
2023-04-09T15:53:46.430Z,99719.00
2023-04-09T15:56:16.982Z,99725.40
2023-04-09T15:58:44.639Z,99727.80
2023-04-09T16:01:12.781Z,99729.20
2023-04-09T16:03:41.340Z,99728.00
2023-04-09T16:06:14.984Z,99730.60
2023-04-09T16:08:42.659Z,99732.20
2023-04-09T16:11:10.908Z,99735.80
2023-04-09T16:13:38.781Z,99734.00
2023-04-09T16:16:07.314Z,99736.60
2023-04-09T16:18:35.662Z,99733.60
2023-04-09T16:21:04.457Z,99729.40
2023-04-09T16:23:33.087Z,99731.60
2023-04-09T16:26:00.680Z,99732.20
2023-04-09T16:28:28.697Z,99730.40
2023-04-09T16:30:56.536Z,99730.40
2023-04-09T16:33:24.335Z,99727.60
2023-04-09T16:35:52.018Z,99726.60
2023-04-09T16:38:19.788Z,99731.00
2023-04-09T16:40:47.532Z,99735.60
2023-04-09T16:43:15.404Z,99730.00
2023-04-09T16:45:43.129Z,99734.20
2023-04-09T16:48:12.608Z,99728.60
2023-04-09T16:50:41.135Z,99736.00
2023-04-09T16:53:08.991Z,99742.20
2023-04-09T16:55:36.656Z,99749.40
2023-04-09T16:58:04.342Z,99751.60
2023-04-09T17:00:32.186Z,99742.20
2023-04-09T17:02:59.925Z,99749.00
2023-04-09T17:05:27.844Z,99747.00
2023-04-09T17:07:56.251Z,99747.20
2023-04-09T17:10:24.133Z,99750.40
2023-04-09T17:12:52.163Z,99751.00
2023-04-09T17:15:19.885Z,99753.20
2023-04-09T17:17:51.255Z,99759.20
2023-04-09T17:20:21.896Z,99758.80
2023-04-09T17:22:49.794Z,99771.80
2023-04-09T17:25:18.429Z,99767.20
2023-04-09T17:27:46.508Z,99768.40
2023-04-09T17:30:14.506Z,99774.00
2023-04-09T17:32:43.799Z,99770.00
2023-04-09T17:35:11.535Z,99773.80
2023-04-09T17:37:39.680Z,99777.20
2023-04-09T17:40:08.884Z,99777.80
2023-04-09T17:42:36.543Z,99785.20
2023-04-09T17:45:05.706Z,99790.60
2023-04-09T17:47:33.993Z,99795.80
2023-04-09T17:50:01.959Z,99790.80
2023-04-09T17:52:36.744Z,99790.00
2023-04-09T17:55:12.336Z,99796.80
2023-04-09T17:57:41.719Z,99800.40
2023-04-09T18:00:11.532Z,99814.20
2023-04-09T18:02:39.625Z,99807.20
2023-04-09T18:05:08.602Z,99811.00
2023-04-09T18:07:36.861Z,99811.00
2023-04-09T18:10:05.531Z,99805.80
2023-04-09T18:12:33.297Z,99810.20
2023-04-09T18:15:02.046Z,99809.60
2023-04-09T18:17:30.400Z,99819.40
2023-04-09T18:19:58.475Z,99823.00
2023-04-09T18:22:27.730Z,99817.60
2023-04-09T18:24:55.550Z,99819.80
2023-04-09T18:27:23.327Z,99821.40
2023-04-09T18:29:51.002Z,99822.00
2023-04-09T18:32:19.809Z,99824.40
2023-04-09T18:34:48.449Z,99826.80
2023-04-09T18:37:16.166Z,99823.20
2023-04-09T18:39:46.246Z,99822.80
2023-04-09T18:42:14.285Z,99826.00
2023-04-09T18:44:42.615Z,99828.60
2023-04-09T18:47:11.035Z,99835.20
2023-04-09T18:49:39.038Z,99834.80
2023-04-09T18:52:09.196Z,99828.00
2023-04-09T18:54:38.795Z,99829.40
2023-04-09T18:57:07.532Z,99832.20
2023-04-09T18:59:35.386Z,99835.80
2023-04-09T19:02:05.070Z,99834.00
2023-04-09T19:04:39.697Z,99836.60
2023-04-09T19:07:08.065Z,99839.00
2023-04-09T19:09:37.189Z,99836.20
2023-04-09T19:12:05.775Z,99836.20
2023-04-09T19:14:33.580Z,99843.40
2023-04-09T19:17:02.401Z,99840.60
2023-04-09T19:19:30.382Z,99843.20
2023-04-09T19:21:59.009Z,99839.00
2023-04-09T19:24:27.275Z,99843.00
2023-04-09T19:26:56.679Z,99842.60
2023-04-09T19:29:24.658Z,99844.00
2023-04-09T19:31:52.308Z,99842.80
2023-04-09T19:34:20.560Z,99848.20
2023-04-09T19:36:48.467Z,99849.80
2023-04-09T19:39:16.352Z,99849.60
2023-04-09T19:41:44.339Z,99848.40
2023-04-09T19:44:12.106Z,99848.20
2023-04-09T19:46:40.307Z,99853.60
2023-04-09T19:49:07.970Z,99853.20
2023-04-09T19:51:35.669Z,99851.60
2023-04-09T19:54:03.890Z,99850.00
2023-04-09T19:56:32.933Z,99848.20
2023-04-09T19:59:00.761Z,99850.20
2023-04-09T20:01:29.057Z,99851.40
2023-04-09T20:03:57.537Z,99853.00
2023-04-09T20:06:27.173Z,99857.00
2023-04-09T20:08:56.032Z,99862.60
2023-04-09T20:11:23.764Z,99859.00
2023-04-09T20:13:52.044Z,99862.80
2023-04-09T20:16:19.762Z,99858.60
2023-04-09T20:18:47.493Z,99857.20
2023-04-09T20:21:15.610Z,99859.20
2023-04-09T20:23:45.240Z,99862.20
2023-04-09T20:26:13.580Z,99858.20
2023-04-09T20:28:41.917Z,99864.20
2023-04-09T20:31:09.618Z,99859.60
2023-04-09T20:33:37.270Z,99862.20
2023-04-09T20:36:15.271Z,99862.00
2023-04-09T20:38:43.315Z,99866.60
2023-04-09T20:41:11.348Z,99864.80
2023-04-09T20:43:39.321Z,99859.60
2023-04-09T20:46:07.064Z,99860.60
2023-04-09T20:48:34.764Z,99864.40
2023-04-09T20:51:09.786Z,99864.20
2023-04-09T20:53:38.839Z,99869.40
2023-04-09T20:56:07.393Z,99862.60
2023-04-09T20:58:35.279Z,99869.60
2023-04-09T21:01:09.772Z,99861.60
2023-04-09T21:03:40.163Z,99857.60
2023-04-09T21:06:08.764Z,99859.00
2023-04-09T21:08:37.268Z,99855.20
2023-04-09T21:11:05.384Z,99858.40
2023-04-09T21:13:40.417Z,99859.60
2023-04-09T21:16:18.662Z,99860.80
2023-04-09T21:18:46.605Z,99853.00
2023-04-09T21:21:14.429Z,99857.80
2023-04-09T21:23:42.214Z,99857.60
2023-04-09T21:26:11.353Z,99861.80
2023-04-09T21:28:38.957Z,99860.00
2023-04-09T21:31:06.622Z,99861.40
2023-04-09T21:33:34.847Z,99857.80
2023-04-09T21:36:04.340Z,99862.80
2023-04-09T21:38:31.998Z,99862.80
2023-04-09T21:40:59.898Z,99860.00
2023-04-09T21:43:29.238Z,99861.00
2023-04-09T21:45:57.552Z,99858.00
2023-04-09T21:48:26.436Z,99859.20
2023-04-09T21:50:54.166Z,99856.20
2023-04-09T21:53:21.876Z,99854.00
2023-04-09T21:55:49.515Z,99852.80
2023-04-09T21:58:17.166Z,99853.80
2023-04-09T22:00:44.833Z,99850.80
2023-04-09T22:03:12.616Z,99854.80
2023-04-09T22:05:40.803Z,99853.00
2023-04-09T22:08:08.479Z,99853.80
2023-04-09T22:10:36.465Z,99855.00
2023-04-09T22:13:04.117Z,99854.80
2023-04-09T22:15:32.013Z,99852.80
2023-04-09T22:18:00.119Z,99852.40
2023-04-09T22:20:27.831Z,99852.40
2023-04-09T22:22:55.688Z,99853.80
2023-04-09T22:25:23.574Z,99853.80
2023-04-09T22:27:54.304Z,99854.80
2023-04-09T22:30:23.767Z,99850.40
2023-04-09T22:32:51.916Z,99852.60
2023-04-09T22:35:19.722Z,99856.00
2023-04-09T22:37:47.514Z,99852.80
2023-04-09T22:40:16.118Z,99848.60
2023-04-09T22:42:46.818Z,99853.00
2023-04-09T22:45:14.459Z,99845.60
2023-04-09T22:47:42.161Z,99846.60
2023-04-09T22:50:11.479Z,99850.80
2023-04-09T22:52:39.108Z,99846.40
2023-04-09T22:55:10.105Z,99852.40
2023-04-09T22:57:38.495Z,99850.80
2023-04-09T23:00:08.540Z,99852.20
2023-04-09T23:02:36.993Z,99857.00
2023-04-09T23:05:05.869Z,99859.20
2023-04-09T23:07:33.997Z,99857.40
2023-04-09T23:10:02.301Z,99859.20
2023-04-09T23:12:30.349Z,99854.60
2023-04-09T23:14:58.000Z,99856.20
2023-04-09T23:17:27.904Z,99849.20
2023-04-09T23:19:55.637Z,99848.60
2023-04-09T23:25:09.840Z,99850.00
2023-04-09T23:27:37.568Z,99851.40
2023-04-09T23:30:07.750Z,99848.80
2023-04-09T23:32:35.826Z,99845.60
2023-04-09T23:35:04.368Z,99848.40
2023-04-09T23:37:32.037Z,99840.80
2023-04-09T23:39:59.663Z,99842.40
2023-04-09T23:42:32.865Z,99839.40
2023-04-09T23:45:04.264Z,99836.20
2023-04-09T23:47:34.512Z,99831.20
2023-04-09T23:50:05.706Z,99827.00
2023-04-09T23:52:35.914Z,99829.80
2023-04-09T23:55:08.652Z,99830.80
2023-04-09T23:57:36.399Z,99832.80
